Accueil
METAR-TAF:

METAR-TAF

Aéroports :

La Rochelle, France

Aéroport de La Rochelle - île de Ré

latitude: 46-10-45N, longitude: 1-11-43W, altitude: 23 m

Observation

Le bulletin a été fait il y a 31 minutes, à 04:30 UTC
Vent 7 kt de sud
Température 8°C
Humidité 93%
Pression 1024 hPa
Visibilité 10 km ou plus
pluie faible

METAR: LFBH 180430Z AUTO 19007KT 9999 -RA ////// 08/07 Q1024

Heure: 06:01 (05:01 UTC)

Prévision

Le bulletin a été fait il y a 6 heures et 1 minutes, à 23:00 UTC
Prévision valable du 18 à 00 UTC au 18 à 24 UTC
Vent 5 kt de ouest
Visibilité: 7000 m
Evoluant progressivement
du 18 à 06 UTC au 18 à 08 UTC
Vent 10 kt de sud
Temporairement
du 18 à 06 UTC au 18 à 24 UTC
Nuages fragmentés à une hauteur de 1000 ft
pluie faible

TAF: LFBH 172300Z 1800/1824 28005KT 7000 NSC BECMG 1806/1808 17010KT TEMPO 1806/1824 -RA BKN010

Observations et prévisions météorologiques de plus de 4000 aéroports (messages METAR et TAF).

Les stations disponibles sont représentées par des disques jaunes et rouges sur la carte.

Passer la souris dessus pour voir le nom de la station.

Cliquer dessus pour voir les observations et prévisions météorologiques.

Pour changer de carte: cliquez sur les boutons verts avec une croix noire pour zoomer, sur le bouton vert avec un tiret pour effectuer un zoom arrière, ou sur les flèches vertes pour les cartes adjacentes.


METAR-TAF: